createdAt,value
2023-04-02T00:01:40.841Z,38.87
2023-04-02T00:05:40.968Z,35.74
2023-04-02T00:09:40.902Z,37.12
2023-04-02T00:13:41.400Z,40.57
2023-04-02T00:17:41.061Z,34.16
2023-04-02T00:21:41.093Z,35.28
2023-04-02T00:25:41.192Z,37.18
2023-04-02T00:29:41.439Z,38.22
2023-04-02T00:33:41.313Z,34.14
2023-04-02T00:37:41.375Z,36.85
2023-04-02T00:41:41.427Z,36.99
2023-04-02T00:45:42.059Z,39.53
2023-04-02T00:49:41.556Z,41.13
2023-04-02T00:53:41.582Z,36.09
2023-04-02T00:57:41.645Z,31.92
2023-04-02T01:01:41.744Z,35.56
2023-04-02T01:05:41.762Z,35.44
2023-04-02T01:09:43.439Z,36.63
2023-04-02T01:13:41.861Z,34.11
2023-04-02T01:17:42.614Z,32.90
2023-04-02T01:21:42.501Z,37.65
2023-04-02T01:25:42.033Z,35.03
2023-04-02T01:29:42.108Z,30.79
2023-04-02T01:33:42.192Z,36.03
2023-04-02T01:37:43.445Z,33.60
2023-04-02T01:41:42.309Z,35.07
2023-04-02T01:45:42.462Z,33.38
2023-04-02T01:49:42.414Z,36.18
2023-04-02T01:53:42.522Z,32.21
2023-04-02T01:57:42.552Z,33.17
2023-04-02T02:01:42.657Z,32.72
2023-04-02T02:05:42.688Z,35.05
2023-04-02T02:09:42.963Z,30.99
2023-04-02T02:13:42.837Z,36.68
2023-04-02T02:17:42.985Z,31.92
2023-04-02T02:21:42.995Z,37.33
2023-04-02T02:25:43.974Z,34.34
2023-04-02T02:29:43.146Z,32.24
2023-04-02T02:33:44.445Z,34.45
2023-04-02T02:37:43.234Z,32.33
2023-04-02T02:41:43.491Z,35.93
2023-04-02T02:45:43.391Z,34.88
2023-04-02T02:49:43.435Z,34.39
2023-04-02T02:53:43.971Z,34.08
2023-04-02T02:57:43.566Z,35.24
2023-04-02T03:01:43.723Z,34.30
2023-04-02T03:05:43.717Z,32.18
2023-04-02T03:09:43.780Z,32.34
2023-04-02T03:13:43.864Z,34.11
2023-04-02T03:17:44.013Z,34.73
2023-04-02T03:21:44.037Z,35.67
2023-04-02T03:25:44.465Z,31.51
2023-04-02T03:29:44.157Z,30.92
2023-04-02T03:33:44.500Z,33.36
2023-04-02T03:37:44.343Z,33.55
2023-04-02T03:41:44.479Z,32.10
2023-04-02T03:45:44.963Z,32.49
2023-04-02T03:49:44.624Z,33.50
2023-04-02T03:53:45.013Z,27.90
2023-04-02T03:57:44.787Z,35.51
2023-04-02T04:01:44.898Z,31.48
2023-04-02T04:05:44.935Z,32.98
2023-04-02T04:09:45.039Z,29.36
2023-04-02T04:13:45.524Z,32.02
2023-04-02T04:17:45.495Z,33.17
2023-04-02T04:21:45.506Z,33.66
2023-04-02T04:25:45.383Z,32.45
2023-04-02T04:29:45.576Z,32.34
2023-04-02T04:33:45.586Z,32.65
2023-04-02T04:37:46.036Z,31.39
2023-04-02T04:41:46.024Z,32.10
2023-04-02T04:45:45.855Z,35.15
2023-04-02T04:49:46.015Z,31.44
2023-04-02T04:53:46.007Z,36.30
2023-04-02T04:57:46.516Z,35.06
2023-04-02T05:01:46.226Z,32.23
2023-04-02T05:05:46.345Z,33.74
2023-04-02T05:09:46.407Z,35.20
2023-04-02T05:13:46.528Z,31.38
2023-04-02T05:17:46.680Z,31.07
2023-04-02T05:21:47.023Z,30.92
2023-04-02T05:25:46.816Z,31.29
2023-04-02T05:29:46.905Z,34.08
2023-04-02T05:33:47.524Z,34.04
2023-04-02T05:37:47.126Z,34.42
2023-04-02T05:41:47.242Z,32.19
2023-04-02T05:45:47.533Z,33.60
2023-04-02T05:49:47.477Z,35.11
2023-04-02T05:53:48.048Z,34.96
2023-04-02T05:58:01.199Z,34.29
2023-04-02T06:01:48.692Z,31.77
2023-04-02T06:05:47.631Z,29.84
2023-04-02T06:09:48.034Z,29.80
2023-04-02T06:13:47.540Z,36.43
2023-04-02T06:17:48.105Z,32.80
2023-04-02T06:21:47.774Z,33.55
2023-04-02T06:25:47.909Z,33.29
2023-04-02T06:29:47.997Z,35.29
2023-04-02T06:33:48.103Z,33.84
2023-04-02T06:37:48.249Z,37.68
2023-04-02T06:41:48.334Z,36.63
2023-04-02T06:45:48.641Z,34.94
2023-04-02T06:49:49.064Z,35.94
2023-04-02T06:53:48.724Z,35.67
2023-04-02T06:57:49.083Z,35.00
2023-04-02T07:01:49.109Z,30.95
2023-04-02T07:05:49.091Z,35.77
2023-04-02T07:09:49.148Z,31.49
2023-04-02T07:13:49.570Z,31.39
2023-04-02T07:17:49.431Z,30.93
2023-04-02T07:21:49.575Z,31.80
2023-04-02T07:25:50.061Z,34.09
2023-04-02T07:29:49.782Z,33.02
2023-04-02T07:33:50.081Z,33.22
2023-04-02T07:37:49.950Z,32.33
2023-04-02T07:41:50.065Z,34.84
2023-04-02T07:45:50.138Z,32.49
2023-04-02T07:49:50.286Z,30.23
2023-04-02T07:53:50.617Z,29.86
2023-04-02T07:57:50.428Z,31.91
2023-04-02T08:01:50.548Z,29.41
2023-04-02T08:05:51.072Z,31.68
2023-04-02T08:09:50.724Z,26.09
2023-04-02T08:13:51.121Z,27.61
2023-04-02T08:17:50.945Z,28.84
2023-04-02T08:21:51.067Z,34.67
2023-04-02T08:25:51.072Z,28.85
2023-04-02T08:29:51.093Z,29.83
2023-04-02T08:33:51.610Z,30.25
2023-04-02T08:37:51.311Z,34.52
2023-04-02T08:41:51.588Z,33.79
2023-04-02T08:49:51.530Z,34.68
2023-04-02T08:53:51.597Z,35.45
2023-04-02T08:57:51.651Z,31.06
2023-04-02T09:01:51.790Z,35.56
2023-04-02T09:05:52.093Z,33.25
2023-04-02T09:09:51.905Z,29.69
2023-04-02T09:13:51.944Z,31.02
2023-04-02T09:17:54.333Z,33.65
2023-04-02T09:21:52.102Z,32.77
2023-04-02T09:26:01.331Z,32.26
2023-04-02T09:29:52.977Z,30.96
2023-04-02T09:33:51.902Z,30.77
2023-04-02T09:37:51.913Z,34.25
2023-04-02T09:42:02.770Z,34.94
2023-04-02T09:45:53.136Z,30.61
2023-04-02T09:49:51.804Z,34.21
2023-04-02T09:53:51.815Z,32.02
2023-04-02T09:57:51.860Z,34.78
2023-04-02T10:01:51.925Z,33.53
2023-04-02T10:05:52.137Z,31.28
2023-04-02T10:09:52.055Z,31.02
2023-04-02T10:13:52.127Z,30.69
2023-04-02T10:17:52.711Z,28.17
2023-04-02T10:21:52.699Z,30.29
2023-04-02T10:25:52.609Z,25.94
2023-04-02T10:29:52.398Z,26.69
2023-04-02T10:33:52.472Z,29.28
2023-04-02T10:37:52.503Z,29.46
2023-04-02T10:41:52.622Z,30.71
2023-04-02T10:45:53.162Z,28.56
2023-04-02T10:49:53.638Z,29.05
2023-04-02T10:53:52.810Z,25.00
2023-04-02T10:57:53.191Z,29.30
2023-04-02T11:01:52.989Z,31.70
2023-04-02T11:05:53.137Z,30.42
2023-04-02T11:09:53.103Z,28.56
2023-04-02T11:13:53.640Z,30.50
2023-04-02T11:17:53.269Z,32.48
2023-04-02T11:21:59.625Z,30.63
2023-04-02T11:25:54.623Z,28.59
2023-04-02T11:29:53.283Z,28.42
2023-04-02T11:33:53.671Z,28.64
2023-04-02T11:37:53.391Z,31.25
2023-04-02T11:41:53.698Z,28.98
2023-04-02T11:45:53.705Z,27.79
2023-04-02T11:49:53.614Z,33.63
2023-04-02T11:53:53.704Z,29.03
2023-04-02T11:57:53.807Z,32.49
2023-04-02T12:01:53.899Z,32.12
2023-04-02T12:05:53.969Z,30.67
2023-04-02T12:09:54.060Z,32.71
2023-04-02T12:13:54.115Z,28.05
2023-04-02T12:17:54.703Z,26.05
2023-04-02T12:21:54.309Z,33.62
2023-04-02T12:25:54.693Z,34.13
2023-04-02T12:29:54.482Z,28.73
2023-04-02T12:33:54.553Z,35.44
2023-04-02T12:37:55.157Z,31.46
2023-04-02T12:41:54.770Z,39.08
2023-04-02T12:45:54.914Z,37.44
2023-04-02T12:49:54.988Z,39.37
2023-04-02T12:53:55.214Z,35.80
2023-04-02T12:57:55.158Z,33.76
2023-04-02T13:02:02.778Z,33.11
2023-04-02T13:05:55.253Z,37.37
2023-04-02T13:09:55.704Z,31.96
2023-04-02T13:13:55.203Z,37.42
2023-04-02T13:17:55.217Z,37.38
2023-04-02T13:21:55.118Z,35.73
2023-04-02T13:25:55.148Z,33.08
2023-04-02T13:29:55.708Z,35.15
2023-04-02T13:33:55.383Z,38.66
2023-04-02T13:37:55.819Z,33.28
2023-04-02T13:41:55.603Z,36.62
2023-04-02T13:45:55.734Z,33.90
2023-04-02T13:49:56.192Z,35.97
2023-04-02T13:53:56.209Z,31.44
2023-04-02T13:57:56.242Z,34.68
2023-04-02T14:01:56.280Z,38.21
2023-04-02T14:05:56.350Z,40.36
2023-04-02T14:09:56.723Z,39.21
2023-04-02T14:13:56.582Z,45.45
2023-04-02T14:17:56.729Z,40.42
2023-04-02T14:21:56.793Z,44.40
2023-04-02T14:25:56.920Z,46.76
2023-04-02T14:29:57.233Z,46.56
2023-04-02T14:33:57.126Z,45.67
2023-04-02T14:37:57.700Z,40.92
2023-04-02T14:41:57.344Z,42.31
2023-04-02T14:45:57.483Z,40.61
2023-04-02T14:49:57.757Z,39.85
2023-04-02T14:53:57.695Z,40.94
2023-04-02T14:57:58.256Z,43.80
2023-04-02T15:01:57.986Z,31.83
2023-04-02T15:05:58.087Z,36.12
2023-04-02T15:09:58.236Z,36.09
2023-04-02T15:13:58.744Z,37.24
2023-04-02T15:17:58.819Z,33.80
2023-04-02T15:22:00.973Z,38.62
2023-04-02T15:25:58.734Z,38.23
2023-04-02T15:29:58.853Z,40.01
2023-04-02T15:33:58.481Z,41.17
2023-04-02T15:37:58.462Z,41.98
2023-04-02T15:41:58.423Z,36.69
2023-04-02T15:45:58.793Z,39.94
2023-04-02T15:49:58.296Z,37.34
2023-04-02T15:53:58.739Z,45.59
2023-04-02T15:57:58.393Z,39.90
2023-04-02T16:01:58.522Z,36.31
2023-04-02T16:05:58.663Z,33.01
2023-04-02T16:09:58.828Z,41.33
2023-04-02T16:13:58.958Z,41.93
2023-04-02T16:17:59.128Z,38.06
2023-04-02T16:21:59.281Z,38.99
2023-04-02T16:25:59.793Z,38.34
2023-04-02T16:29:59.526Z,47.06
2023-04-02T16:34:00.279Z,43.28
2023-04-02T16:37:59.839Z,37.19
2023-04-02T16:41:59.954Z,37.45
2023-04-02T16:46:00.294Z,41.92
2023-04-02T16:50:00.266Z,42.51
2023-04-02T16:54:02.529Z,37.69
2023-04-02T16:58:00.517Z,42.31
2023-04-02T17:02:00.731Z,45.10
2023-04-02T17:06:01.271Z,39.38
2023-04-02T17:10:00.994Z,41.96
2023-04-02T17:14:01.163Z,43.10
2023-04-02T17:18:01.310Z,38.65
2023-04-02T17:22:01.806Z,39.81
2023-04-02T17:26:01.808Z,41.02
2023-04-02T17:30:01.683Z,37.96
2023-04-02T17:34:01.867Z,38.79
2023-04-02T17:38:02.290Z,42.87
2023-04-02T17:42:02.185Z,42.72
2023-04-02T17:46:02.876Z,41.16
2023-04-02T17:50:02.789Z,44.31
2023-04-02T17:54:02.582Z,44.07
2023-04-02T17:58:02.804Z,41.45
2023-04-02T18:02:02.852Z,45.40
2023-04-02T18:06:03.294Z,42.55
2023-04-02T18:10:03.141Z,42.73
2023-04-02T18:14:03.307Z,43.27
2023-04-02T18:18:03.853Z,46.09
2023-04-02T18:22:03.633Z,45.19
2023-04-02T18:26:03.776Z,48.07
2023-04-02T18:30:03.953Z,48.20
2023-04-02T18:34:04.073Z,45.67
2023-04-02T18:38:04.296Z,43.93
2023-04-02T18:42:04.416Z,48.63
2023-04-02T18:46:04.818Z,49.03
2023-04-02T18:50:04.753Z,48.40
2023-04-02T18:54:05.336Z,52.98
2023-04-02T18:58:05.315Z,46.56
2023-04-02T19:02:05.365Z,46.46
2023-04-02T19:06:05.806Z,52.22
2023-04-02T19:10:05.634Z,53.37
2023-04-02T19:14:06.327Z,51.33
2023-04-02T19:18:06.333Z,51.28
2023-04-02T19:22:06.358Z,52.28
2023-04-02T19:26:06.863Z,50.68
2023-04-02T19:30:06.589Z,54.66
2023-04-02T19:34:06.806Z,53.48
2023-04-02T19:38:06.984Z,53.87
2023-04-02T19:42:07.316Z,55.64
2023-04-02T19:46:07.846Z,57.83
2023-04-02T19:50:07.498Z,56.92
2023-04-02T19:54:07.693Z,56.10
2023-04-02T19:58:18.791Z,57.33
2023-04-02T20:02:08.993Z,58.40
2023-04-02T20:06:08.175Z,54.58
2023-04-02T20:10:08.393Z,59.04
2023-04-02T20:14:08.589Z,55.05
2023-04-02T20:18:08.858Z,56.66
2023-04-02T20:22:09.329Z,53.99
2023-04-02T20:26:09.369Z,58.64
2023-04-02T20:30:09.426Z,60.31
2023-04-02T20:34:09.991Z,58.98
2023-04-02T20:38:09.820Z,59.04
2023-04-02T20:42:10.371Z,57.56
2023-04-02T20:46:12.178Z,56.81
2023-04-02T20:50:10.483Z,59.04
2023-04-02T20:54:10.863Z,61.94
2023-04-02T20:58:10.848Z,59.39
2023-04-02T21:02:11.009Z,60.36
2023-04-02T21:06:11.225Z,59.78
2023-04-02T21:10:11.875Z,61.52
2023-04-02T21:14:11.641Z,57.45
2023-04-02T21:18:11.869Z,60.34
2023-04-02T21:22:12.357Z,59.23
2023-04-02T21:26:12.195Z,61.62
2023-04-02T21:30:12.361Z,66.02
2023-04-02T21:34:12.874Z,57.89
2023-04-02T21:38:12.790Z,61.26
2023-04-02T21:42:13.368Z,60.05
2023-04-02T21:46:13.139Z,67.58
2023-04-02T21:50:13.309Z,62.11
2023-04-02T21:54:13.852Z,60.98
2023-04-02T21:58:13.644Z,58.74
2023-04-02T22:02:13.810Z,62.13
2023-04-02T22:06:13.963Z,60.59
2023-04-02T22:10:14.179Z,64.05
2023-04-02T22:14:14.403Z,72.01
2023-04-02T22:18:14.882Z,68.18
2023-04-02T22:22:14.873Z,62.48
2023-04-02T22:26:14.907Z,59.88
2023-04-02T22:30:15.099Z,65.26
2023-04-02T22:34:15.414Z,68.51
2023-04-02T22:38:15.485Z,58.94
2023-04-02T22:42:15.910Z,60.99
2023-04-02T22:46:15.930Z,68.85
2023-04-02T22:50:16.389Z,66.09
2023-04-02T22:54:16.289Z,65.36
2023-04-02T22:58:16.893Z,64.71
2023-04-02T23:02:16.685Z,64.66
2023-04-02T23:06:16.880Z,64.97
2023-04-02T23:10:17.042Z,68.82
2023-04-02T23:14:17.413Z,66.88
2023-04-02T23:18:17.452Z,70.58
2023-04-02T23:22:17.676Z,65.91
2023-04-02T23:26:17.878Z,66.09
2023-04-02T23:30:18.040Z,65.65
2023-04-02T23:34:18.416Z,61.71
2023-04-02T23:38:18.935Z,71.37
2023-04-02T23:42:18.607Z,65.59
2023-04-02T23:46:18.970Z,64.12
2023-04-02T23:50:19.409Z,62.53
2023-04-02T23:54:19.196Z,59.13
2023-04-02T23:58:19.923Z,58.89
